createdAt,value
2017-02-27T00:01:01.085Z,21.11
2017-02-27T00:02:10.641Z,21.06
2017-02-27T00:03:19.821Z,21.11
2017-02-27T00:04:30.147Z,21.12
2017-02-27T00:05:38.920Z,21.15
2017-02-27T00:06:48.887Z,21.03
2017-02-27T00:07:58.071Z,21.12
2017-02-27T00:09:07.265Z,21
2017-02-27T00:10:16.785Z,21.07
2017-02-27T00:11:26.322Z,21.03
2017-02-27T00:12:35.879Z,21.09
2017-02-27T00:13:45.485Z,21.07
2017-02-27T00:14:55.096Z,21.09
2017-02-27T00:16:05.442Z,21.09
2017-02-27T00:17:15.039Z,21.02
2017-02-27T00:18:25.379Z,21.06
2017-02-27T00:19:34.955Z,21.02
2017-02-27T00:20:45.307Z,20.97
2017-02-27T00:21:55.257Z,21.02
2017-02-27T00:23:04.783Z,21.03
2017-02-27T00:24:13.956Z,21.02
2017-02-27T00:25:23.158Z,20.97
2017-02-27T00:26:32.727Z,20.97
2017-02-27T00:27:42.379Z,21.05
2017-02-27T00:28:51.943Z,20.92
2017-02-27T00:30:01.177Z,21
2017-02-27T00:31:11.138Z,20.96
2017-02-27T00:32:20.341Z,20.92
2017-02-27T00:33:29.927Z,20.9
2017-02-27T00:34:40.226Z,20.95
2017-02-27T00:35:48.976Z,20.97
2017-02-27T00:36:58.508Z,20.9
2017-02-27T00:38:08.462Z,20.88
2017-02-27T00:39:18.044Z,20.95
2017-02-27T00:40:28.016Z,20.9
2017-02-27T00:41:37.583Z,20.93
2017-02-27T00:42:47.578Z,20.93
2017-02-27T00:43:57.178Z,20.84
2017-02-27T00:45:06.802Z,20.9
2017-02-27T00:46:16.397Z,20.92
2017-02-27T00:47:25.986Z,20.84
2017-02-27T00:48:35.548Z,20.9
2017-02-27T00:49:45.415Z,20.87
2017-02-27T00:50:54.199Z,20.92
2017-02-27T00:52:04.159Z,20.87
2017-02-27T00:53:13.323Z,20.9
2017-02-27T00:54:23.716Z,20.88
2017-02-27T00:55:33.277Z,20.85
2017-02-27T00:56:42.807Z,20.9
2017-02-27T00:57:52.357Z,20.85
2017-02-27T00:59:01.529Z,20.82
2017-02-27T01:00:11.879Z,20.78
2017-02-27T01:01:21.439Z,20.84
2017-02-27T01:02:30.975Z,20.84
2017-02-27T01:03:40.956Z,20.81
2017-02-27T01:04:50.890Z,20.78
2017-02-27T01:05:59.671Z,20.82
2017-02-27T01:07:09.277Z,20.87
2017-02-27T01:08:18.840Z,20.9
2017-02-27T01:09:28.788Z,20.87
2017-02-27T01:10:38.747Z,20.75
2017-02-27T01:11:48.314Z,20.75
2017-02-27T01:12:57.110Z,20.8
2017-02-27T01:14:06.294Z,20.77
2017-02-27T01:15:16.273Z,20.74
2017-02-27T01:16:26.606Z,20.74
2017-02-27T01:17:36.966Z,20.75
2017-02-27T01:18:46.132Z,20.75
2017-02-27T01:19:55.683Z,20.69
2017-02-27T01:21:04.854Z,20.75
2017-02-27T01:22:15.364Z,20.72
2017-02-27T01:23:24.926Z,20.74
2017-02-27T01:24:34.514Z,20.72
2017-02-27T01:25:44.495Z,20.74
2017-02-27T01:26:54.085Z,20.7
2017-02-27T01:28:04.045Z,20.7
2017-02-27T01:29:14.016Z,20.72
2017-02-27T01:30:23.588Z,20.67
2017-02-27T01:31:33.198Z,20.8
2017-02-27T01:32:42.755Z,20.63
2017-02-27T01:33:52.344Z,20.63
2017-02-27T01:52:38.933Z,20.62
2017-02-27T01:53:50.983Z,20.6
2017-02-27T01:55:00.125Z,20.63
2017-02-27T01:56:09.287Z,20.59
2017-02-27T01:57:19.215Z,20.63
2017-02-27T01:58:28.387Z,20.62
2017-02-27T01:59:37.925Z,20.65
2017-02-27T02:00:47.108Z,20.63
2017-02-27T02:01:55.912Z,20.58
2017-02-27T02:03:06.264Z,20.67
2017-02-27T02:04:15.462Z,20.6
2017-02-27T02:05:25.416Z,20.62
2017-02-27T02:06:35.003Z,20.58
2017-02-27T02:07:44.973Z,20.58
2017-02-27T02:08:54.172Z,20.6
2017-02-27T02:10:02.975Z,20.59
2017-02-27T02:11:12.935Z,20.58
2017-02-27T02:12:22.907Z,20.7
2017-02-27T02:13:32.455Z,20.65
2017-02-27T02:14:42.004Z,20.6
2017-02-27T02:15:51.945Z,20.55
2017-02-27T02:17:02.312Z,20.63
2017-02-27T02:18:11.881Z,20.59
2017-02-27T02:19:21.785Z,20.6
2017-02-27T02:20:30.939Z,20.51
2017-02-27T02:21:41.286Z,20.62
2017-02-27T02:22:51.260Z,20.58
2017-02-27T02:24:00.851Z,20.58
2017-02-27T02:25:11.202Z,20.48
2017-02-27T02:26:21.574Z,20.59
2017-02-27T02:27:31.149Z,20.58
2017-02-27T02:28:40.777Z,20.6
2017-02-27T02:29:49.884Z,20.58
2017-02-27T02:30:59.137Z,20.6
2017-02-27T02:32:09.469Z,20.63
2017-02-27T02:33:19.065Z,20.58
2017-02-27T02:34:29.420Z,20.6
2017-02-27T02:35:39.015Z,20.65
2017-02-27T02:36:49.736Z,20.58
2017-02-27T02:37:58.931Z,20.62
2017-02-27T02:39:09.298Z,20.47
2017-02-27T02:40:19.648Z,20.62
2017-02-27T02:41:28.843Z,20.5
2017-02-27T02:42:39.001Z,20.58
2017-02-27T02:43:48.163Z,20.48
2017-02-27T02:44:57.713Z,20.55
2017-02-27T02:46:07.679Z,20.56
2017-02-27T02:47:17.245Z,20.56
2017-02-27T02:48:27.187Z,20.47
2017-02-27T02:49:37.141Z,20.58
2017-02-27T02:50:46.738Z,20.48
2017-02-27T02:51:56.317Z,20.44
2017-02-27T02:53:05.465Z,20.48
2017-02-27T02:54:14.997Z,20.5
2017-02-27T02:55:24.145Z,20.48
2017-02-27T02:56:34.098Z,20.5
2017-02-27T02:57:44.087Z,20.48
2017-02-27T02:58:52.861Z,20.5
2017-02-27T03:00:02.077Z,20.48
2017-02-27T03:01:12.447Z,20.52
2017-02-27T03:02:22.827Z,20.52
2017-02-27T03:03:32.003Z,20.44
2017-02-27T03:04:41.242Z,20.47
2017-02-27T03:05:49.970Z,20.51
2017-02-27T03:07:00.337Z,20.41
2017-02-27T03:08:10.311Z,20.41
2017-02-27T03:09:19.450Z,20.43
2017-02-27T03:10:29.016Z,20.47
2017-02-27T03:11:38.580Z,20.41
2017-02-27T03:12:48.158Z,20.41
2017-02-27T03:13:57.744Z,20.41
2017-02-27T03:15:08.468Z,20.44
2017-02-27T03:16:18.428Z,20.41
2017-02-27T03:17:28.011Z,20.47
2017-02-27T03:18:37.628Z,20.37
2017-02-27T03:19:46.826Z,20.44
2017-02-27T03:20:57.156Z,20.37
2017-02-27T03:22:06.745Z,20.4
2017-02-27T03:23:15.554Z,20.43
2017-02-27T03:24:25.127Z,20.44
2017-02-27T03:25:35.471Z,20.37
2017-02-27T03:26:44.629Z,20.36
2017-02-27T03:27:53.819Z,20.43
2017-02-27T03:29:03.025Z,20.34
2017-02-27T03:30:13.558Z,20.41
2017-02-27T03:31:23.116Z,20.37
2017-02-27T03:32:32.650Z,20.43
2017-02-27T03:33:42.958Z,20.39
2017-02-27T03:34:52.121Z,20.37
2017-02-27T03:36:02.081Z,20.36
2017-02-27T03:37:11.275Z,20.32
2017-02-27T03:38:20.463Z,20.28
2017-02-27T03:39:30.817Z,20.31
2017-02-27T03:40:39.804Z,20.34
2017-02-27T03:41:49.375Z,20.32
2017-02-27T03:42:58.946Z,20.37
2017-02-27T03:44:09.288Z,20.34
2017-02-27T03:45:19.264Z,20.34
2017-02-27T03:46:29.222Z,20.36
2017-02-27T03:47:38.823Z,20.31
2017-02-27T03:48:48.409Z,20.32
2017-02-27T03:49:57.617Z,20.31
2017-02-27T03:51:07.929Z,20.31
2017-02-27T03:52:17.111Z,20.32
2017-02-27T03:53:26.895Z,20.32
2017-02-27T03:54:37.250Z,20.34
2017-02-27T03:55:47.418Z,20.34
2017-02-27T03:56:56.575Z,20.31
2017-02-27T03:58:06.133Z,20.31
2017-02-27T03:59:16.881Z,20.32
2017-02-27T04:00:26.455Z,20.32
2017-02-27T04:01:36.022Z,20.26
2017-02-27T04:02:45.561Z,20.24
2017-02-27T04:03:55.127Z,20.26
2017-02-27T04:05:05.083Z,20.28
2017-02-27T04:06:15.052Z,20.29
2017-02-27T04:07:24.636Z,20.19
2017-02-27T04:08:34.202Z,20.28
2017-02-27T04:09:43.788Z,20.28
2017-02-27T04:10:53.957Z,20.25
2017-02-27T04:12:03.928Z,20.29
2017-02-27T04:13:13.492Z,20.21
2017-02-27T04:14:22.682Z,20.22
2017-02-27T04:15:32.974Z,20.24
2017-02-27T04:16:42.145Z,20.28
2017-02-27T04:17:52.098Z,20.28
2017-02-27T04:19:02.388Z,20.21
2017-02-27T04:20:12.307Z,20.22
2017-02-27T04:21:21.870Z,20.22
2017-02-27T04:22:31.447Z,20.22
2017-02-27T04:23:41.442Z,20.22
2017-02-27T04:24:51.015Z,20.16
2017-02-27T04:26:00.588Z,20.21
2017-02-27T04:27:10.184Z,20.14
2017-02-27T04:28:19.801Z,20.22
2017-02-27T04:29:29.336Z,20.25
2017-02-27T04:30:38.489Z,20.21
2017-02-27T04:31:48.080Z,20.19
2017-02-27T04:32:57.653Z,20.19
2017-02-27T04:34:06.854Z,20.16
2017-02-27T04:35:15.671Z,20.25
2017-02-27T04:36:25.603Z,20.19
2017-02-27T04:37:35.555Z,20.18
2017-02-27T04:38:45.505Z,20.24
2017-02-27T04:39:54.320Z,20.21
2017-02-27T04:41:03.917Z,20.18
2017-02-27T04:42:14.216Z,20.24
2017-02-27T04:43:24.143Z,20.26
2017-02-27T04:44:33.319Z,20.22
2017-02-27T04:45:42.123Z,20.19
2017-02-27T04:46:51.711Z,20.21
2017-02-27T04:48:00.910Z,20.26
2017-02-27T04:49:10.479Z,20.22
2017-02-27T04:50:20.453Z,20.19
2017-02-27T04:51:30.806Z,20.22
2017-02-27T04:52:40.368Z,20.26
2017-02-27T04:53:49.558Z,20.31
2017-02-27T04:54:59.084Z,20.24
2017-02-27T04:56:08.614Z,20.28
2017-02-27T04:57:18.179Z,20.24
2017-02-27T04:58:27.363Z,20.22
2017-02-27T04:59:36.540Z,20.29
2017-02-27T05:00:46.491Z,20.26
2017-02-27T05:01:55.711Z,20.24
2017-02-27T05:03:05.281Z,20.28
2017-02-27T05:04:14.451Z,20.26
2017-02-27T05:05:24.800Z,20.31
2017-02-27T05:06:33.961Z,20.32
2017-02-27T05:07:43.512Z,20.26
2017-02-27T05:08:52.682Z,20.36
2017-02-27T05:10:02.223Z,20.31
2017-02-27T05:11:12.391Z,20.32
2017-02-27T05:12:22.699Z,20.31
2017-02-27T05:13:32.249Z,20.32
2017-02-27T05:14:41.450Z,20.37
2017-02-27T05:15:51.369Z,20.39
2017-02-27T05:17:00.952Z,20.34
2017-02-27T05:18:10.511Z,20.32
2017-02-27T05:19:20.482Z,20.4
2017-02-27T05:20:30.819Z,20.48
2017-02-27T05:21:40.392Z,20.43
2017-02-27T05:22:50.357Z,20.41
2017-02-27T05:23:59.506Z,20.47
2017-02-27T05:25:09.063Z,20.47
2017-02-27T05:26:18.256Z,20.56
2017-02-27T05:27:27.842Z,20.5
2017-02-27T05:28:37.429Z,20.5
2017-02-27T05:29:47.392Z,20.48
2017-02-27T05:30:57.752Z,20.48
2017-02-27T05:32:07.303Z,20.47
2017-02-27T05:33:16.848Z,20.48
2017-02-27T05:34:26.050Z,20.48
2017-02-27T05:35:34.860Z,20.59
2017-02-27T05:36:44.833Z,20.58
2017-02-27T05:37:54.751Z,20.62
2017-02-27T05:39:05.073Z,20.63
2017-02-27T05:40:14.257Z,20.52
2017-02-27T05:41:23.404Z,20.58
2017-02-27T05:42:32.592Z,20.5
2017-02-27T05:43:43.309Z,20.44
2017-02-27T05:44:52.495Z,20.65
2017-02-27T05:46:02.462Z,20.56
2017-02-27T05:47:11.642Z,20.59
2017-02-27T05:48:21.231Z,20.58
2017-02-27T05:49:30.021Z,20.67
2017-02-27T05:50:39.205Z,20.67
2017-02-27T05:51:48.427Z,20.65
2017-02-27T05:52:57.622Z,20.66
2017-02-27T05:54:07.195Z,20.67
2017-02-27T05:55:16.744Z,20.67
2017-02-27T05:56:26.714Z,20.66
2017-02-27T05:57:36.299Z,20.67
2017-02-27T05:58:46.270Z,20.74
2017-02-27T05:59:56.188Z,20.74
2017-02-27T06:01:06.134Z,20.66
2017-02-27T06:02:15.319Z,20.7
2017-02-27T06:03:24.891Z,20.7
2017-02-27T06:04:34.024Z,20.74
2017-02-27T06:05:43.572Z,20.69
2017-02-27T06:06:53.891Z,20.75
2017-02-27T06:08:03.472Z,20.7
2017-02-27T06:09:13.021Z,20.78
2017-02-27T06:10:22.172Z,20.82
2017-02-27T06:11:31.700Z,20.82
2017-02-27T06:12:41.248Z,20.77
2017-02-27T06:13:51.209Z,20.77
2017-02-27T06:15:00.782Z,20.78
2017-02-27T06:16:10.334Z,20.78
2017-02-27T06:17:20.645Z,20.75
2017-02-27T06:18:30.170Z,20.81
2017-02-27T06:19:39.735Z,20.77
2017-02-27T06:20:49.701Z,20.85
2017-02-27T06:21:59.293Z,20.84
2017-02-27T06:23:08.894Z,20.95
2017-02-27T06:24:18.460Z,20.85
2017-02-27T06:25:27.616Z,20.88
2017-02-27T06:26:37.969Z,20.92
2017-02-27T06:27:46.745Z,20.93
2017-02-27T06:28:56.664Z,20.88
2017-02-27T06:30:07.005Z,20.93
2017-02-27T06:31:16.562Z,20.93
2017-02-27T06:32:26.125Z,20.95
2017-02-27T06:33:35.311Z,20.97
2017-02-27T06:34:44.459Z,20.87
2017-02-27T06:35:53.584Z,20.97
2017-02-27T06:37:02.328Z,20.96
2017-02-27T06:38:13.051Z,20.9
2017-02-27T06:39:22.635Z,20.9
2017-02-27T06:40:31.837Z,20.88
2017-02-27T06:41:41.377Z,20.97
2017-02-27T06:42:51.312Z,21.05
2017-02-27T06:44:00.903Z,21.02
2017-02-27T06:45:10.844Z,21.03
2017-02-27T06:46:20.430Z,21.02
2017-02-27T06:47:29.568Z,21.02
2017-02-27T06:48:38.705Z,20.99
2017-02-27T06:49:47.908Z,21.03
2017-02-27T06:50:58.251Z,21.05
2017-02-27T06:52:07.069Z,21.03
2017-02-27T06:53:16.703Z,21.03
2017-02-27T06:54:25.869Z,21.09
2017-02-27T06:55:35.490Z,21.07
2017-02-27T06:56:45.446Z,21.07
2017-02-27T06:57:55.029Z,21.15
2017-02-27T06:59:04.567Z,21.09
2017-02-27T07:00:14.467Z,21.15
2017-02-27T07:01:23.637Z,21.15
2017-02-27T07:02:33.610Z,21.09
2017-02-27T07:03:43.558Z,21.11
2017-02-27T07:04:53.137Z,21.06
2017-02-27T07:06:02.329Z,21.11
2017-02-27T07:07:11.888Z,21.14
2017-02-27T07:08:21.444Z,21.09
2017-02-27T07:09:31.014Z,21.24
2017-02-27T07:10:40.998Z,21.18
2017-02-27T07:11:50.946Z,21.18
2017-02-27T07:13:00.486Z,21.2
2017-02-27T07:14:10.050Z,21.18
2017-02-27T07:15:20.006Z,21.22
2017-02-27T07:16:29.569Z,21.22
2017-02-27T07:17:39.652Z,21.2
2017-02-27T07:18:49.315Z,21.21
2017-02-27T07:19:59.226Z,21.2
2017-02-27T07:21:08.719Z,21.22
2017-02-27T07:22:17.883Z,21.21
2017-02-27T07:23:27.833Z,21.24
2017-02-27T07:24:38.183Z,21.21
2017-02-27T07:25:47.758Z,21.27
2017-02-27T07:26:56.952Z,21.24
2017-02-27T07:28:06.127Z,21.24
2017-02-27T07:29:15.304Z,21.27
2017-02-27T07:30:24.457Z,21.22
2017-02-27T07:31:33.618Z,21.21
2017-02-27T07:32:43.178Z,21.21
2017-02-27T07:33:53.105Z,21.25
2017-02-27T07:35:02.267Z,21.32
2017-02-27T07:36:12.240Z,21.24
2017-02-27T07:37:21.842Z,21.35
2017-02-27T07:38:31.819Z,21.3
2017-02-27T07:39:40.955Z,21.33
2017-02-27T07:40:50.525Z,21.32
2017-02-27T07:42:00.482Z,21.37
2017-02-27T07:43:09.682Z,21.33
2017-02-27T07:44:19.655Z,21.27
2017-02-27T07:45:28.783Z,21.37
2017-02-27T07:46:37.951Z,21.35
2017-02-27T07:47:47.911Z,21.35
2017-02-27T07:48:56.689Z,21.4
2017-02-27T07:50:06.652Z,21.42
2017-02-27T07:51:15.435Z,21.42
2017-02-27T07:52:24.619Z,21.42
2017-02-27T07:53:34.152Z,21.43
2017-02-27T07:54:42.896Z,21.43
2017-02-27T07:55:52.046Z,21.39
2017-02-27T07:57:01.599Z,21.39
2017-02-27T07:58:10.389Z,21.46
2017-02-27T07:59:19.550Z,21.43
2017-02-27T08:00:28.295Z,21.36
2017-02-27T08:01:37.796Z,21.43
2017-02-27T08:02:47.284Z,21.42
2017-02-27T08:03:57.208Z,21.5
2017-02-27T08:05:07.563Z,21.48
2017-02-27T08:06:16.738Z,21.48
2017-02-27T08:07:25.923Z,21.46
2017-02-27T08:08:35.484Z,21.52
2017-02-27T08:09:45.439Z,21.45
2017-02-27T08:10:54.965Z,21.51
2017-02-27T08:12:04.506Z,21.48
2017-02-27T08:13:14.087Z,21.52
2017-02-27T08:14:24.067Z,21.52
2017-02-27T08:15:32.891Z,21.48
2017-02-27T08:16:42.109Z,21.57
2017-02-27T08:17:51.687Z,21.54
2017-02-27T08:19:01.639Z,21.54
2017-02-27T08:20:11.288Z,21.54
2017-02-27T08:21:20.076Z,21.52
2017-02-27T08:22:28.894Z,21.52
2017-02-27T08:23:38.460Z,21.6
2017-02-27T08:24:48.431Z,21.6
2017-02-27T08:25:58.376Z,21.6
2017-02-27T08:27:08.348Z,21.58
2017-02-27T08:28:17.937Z,21.61
2017-02-27T08:29:27.124Z,21.55
2017-02-27T08:30:36.308Z,21.62
2017-02-27T08:31:45.893Z,21.6
2017-02-27T08:32:55.458Z,21.57
2017-02-27T08:34:04.659Z,21.61
2017-02-27T08:35:15.027Z,21.6
2017-02-27T08:36:24.596Z,21.69
2017-02-27T08:37:34.539Z,21.67
2017-02-27T08:38:44.120Z,21.58
2017-02-27T08:39:52.947Z,21.61
2017-02-27T08:41:02.102Z,21.62
2017-02-27T08:42:12.027Z,21.7
2017-02-27T08:43:22.333Z,21.7
2017-02-27T08:44:32.662Z,21.66
2017-02-27T08:45:41.815Z,21.7
2017-02-27T08:46:51.755Z,21.67
2017-02-27T08:48:01.309Z,21.64
2017-02-27T08:49:11.642Z,21.64
2017-02-27T08:50:21.221Z,21.75
2017-02-27T08:51:30.439Z,21.66
2017-02-27T08:52:40.376Z,21.66
2017-02-27T08:53:50.093Z,21.67
2017-02-27T08:55:00.021Z,21.79
2017-02-27T08:56:08.814Z,21.77
2017-02-27T08:57:17.611Z,21.67
2017-02-27T08:58:27.140Z,21.7
2017-02-27T08:59:36.703Z,21.7
2017-02-27T09:00:46.682Z,21.73
2017-02-27T09:01:56.683Z,21.77
2017-02-27T09:03:06.263Z,21.75
2017-02-27T09:04:16.590Z,21.7
2017-02-27T09:05:26.120Z,21.73
2017-02-27T09:06:34.908Z,21.77
2017-02-27T09:07:44.462Z,21.76
2017-02-27T09:08:54.016Z,21.69
2017-02-27T09:10:04.005Z,21.69
2017-02-27T09:11:13.579Z,21.76
2017-02-27T09:12:23.538Z,21.77
2017-02-27T09:13:32.696Z,21.75
2017-02-27T09:14:43.011Z,21.73
2017-02-27T09:15:52.230Z,21.79
2017-02-27T09:17:02.211Z,21.76
2017-02-27T09:18:12.176Z,21.76
2017-02-27T09:19:22.153Z,21.82
2017-02-27T09:20:31.695Z,21.8
2017-02-27T09:21:41.297Z,21.79
2017-02-27T09:22:50.907Z,21.8
2017-02-27T09:24:00.869Z,21.76
2017-02-27T09:25:10.404Z,21.75
2017-02-27T09:26:20.712Z,21.79
2017-02-27T09:27:30.667Z,21.75
2017-02-27T09:28:40.252Z,21.76
2017-02-27T09:29:49.435Z,21.79
2017-02-27T09:30:58.971Z,21.82
2017-02-27T09:32:08.129Z,21.79
2017-02-27T09:33:18.126Z,21.82
2017-02-27T09:34:27.721Z,21.76
2017-02-27T09:35:37.260Z,21.79
2017-02-27T09:36:46.423Z,21.85
2017-02-27T09:37:55.607Z,21.82
2017-02-27T09:39:05.998Z,21.82
2017-02-27T09:40:16.354Z,21.85
2017-02-27T09:41:26.690Z,21.89
2017-02-27T09:42:35.839Z,21.89
2017-02-27T09:43:45.968Z,21.85
2017-02-27T09:44:55.524Z,21.92
2017-02-27T09:46:05.527Z,21.93
2017-02-27T09:47:15.486Z,21.89
2017-02-27T09:48:25.039Z,21.92
2017-02-27T09:49:35.026Z,21.88
2017-02-27T09:50:44.592Z,21.83
2017-02-27T09:51:54.547Z,21.88
2017-02-27T09:53:04.087Z,21.85
2017-02-27T09:54:13.642Z,21.89
2017-02-27T09:55:22.837Z,21.82
2017-02-27T09:56:32.444Z,21.89
2017-02-27T09:57:42.400Z,21.91
2017-02-27T09:58:51.999Z,21.91
2017-02-27T10:00:01.959Z,21.85
2017-02-27T10:01:12.276Z,21.89
2017-02-27T10:02:22.631Z,21.95
2017-02-27T10:03:32.203Z,21.95
2017-02-27T10:04:41.769Z,21.93
2017-02-27T10:05:52.143Z,21.96
2017-02-27T10:07:01.708Z,22
2017-02-27T10:08:11.293Z,21.99
2017-02-27T10:09:20.855Z,22
2017-02-27T10:10:30.425Z,22
2017-02-27T10:11:40.010Z,21.98
2017-02-27T10:12:49.982Z,21.98
2017-02-27T10:13:59.200Z,22.02
2017-02-27T10:15:09.553Z,21.98
2017-02-27T10:16:19.519Z,21.95
2017-02-27T10:17:29.114Z,21.96
2017-02-27T10:18:38.248Z,22.06
2017-02-27T10:19:48.302Z,22.1
2017-02-27T10:20:57.495Z,22.02
2017-02-27T10:22:07.050Z,21.99
2017-02-27T10:23:17.047Z,22.02
2017-02-27T10:24:27.021Z,22
2017-02-27T10:25:37.385Z,22.08
2017-02-27T10:26:46.591Z,22.02
2017-02-27T10:27:56.154Z,22.18
2017-02-27T10:29:05.342Z,22.13
2017-02-27T10:30:16.062Z,22.15
2017-02-27T10:31:25.270Z,22.13
2017-02-27T10:32:34.837Z,22.15
2017-02-27T10:33:45.130Z,22.22
2017-02-27T10:34:55.268Z,22.15
2017-02-27T10:36:05.640Z,22.13
2017-02-27T10:37:14.830Z,22.17
2017-02-27T10:38:24.375Z,22.26
2017-02-27T10:39:33.917Z,22.26
2017-02-27T10:40:43.888Z,22.26
2017-02-27T10:41:53.456Z,22.25
2017-02-27T10:43:03.812Z,22.23
2017-02-27T10:44:13.725Z,22.26
2017-02-27T10:45:23.309Z,22.26
2017-02-27T10:46:32.846Z,22.43
2017-02-27T10:47:42.391Z,22.35
2017-02-27T10:48:52.723Z,22.32
2017-02-27T10:50:02.721Z,22.41
2017-02-27T10:51:12.311Z,22.3
2017-02-27T10:52:21.445Z,22.41
2017-02-27T10:53:31.377Z,22.41
2017-02-27T10:54:40.500Z,22.43
2017-02-27T10:55:49.657Z,22.39
2017-02-27T10:56:59.622Z,22.38
2017-02-27T10:58:08.805Z,22.38
2017-02-27T10:59:18.367Z,22.39
2017-02-27T11:00:27.593Z,22.35
2017-02-27T11:01:37.938Z,22.28
2017-02-27T11:02:48.293Z,22.41
2017-02-27T11:03:57.856Z,22.39
2017-02-27T11:05:08.250Z,22.39
2017-02-27T11:06:17.448Z,22.36
2017-02-27T11:07:27.444Z,22.38
2017-02-27T11:08:37.426Z,22.33
2017-02-27T11:09:46.628Z,22.32
2017-02-27T11:10:56.987Z,22.32
2017-02-27T11:12:06.959Z,22.41
2017-02-27T11:13:16.890Z,22.28
2017-02-27T11:14:26.441Z,22.22
2017-02-27T11:15:35.579Z,22.33
2017-02-27T11:16:45.106Z,22.29
2017-02-27T11:17:55.025Z,22.28
2017-02-27T11:19:05.339Z,22.32
2017-02-27T11:20:14.916Z,22.29
2017-02-27T11:21:24.487Z,22.3
2017-02-27T11:22:34.471Z,22.32
2017-02-27T11:23:43.690Z,22.28
2017-02-27T11:24:52.896Z,22.41
2017-02-27T11:26:02.485Z,22.36
2017-02-27T11:27:11.687Z,22.38
2017-02-27T11:28:21.267Z,22.32
2017-02-27T11:29:30.796Z,22.33
2017-02-27T11:30:39.961Z,22.35
2017-02-27T11:31:49.523Z,22.38
2017-02-27T11:32:59.478Z,22.3
2017-02-27T11:34:09.007Z,22.36
2017-02-27T11:35:17.781Z,22.35
2017-02-27T11:36:26.954Z,22.39
2017-02-27T11:37:36.493Z,22.35
2017-02-27T11:38:46.432Z,22.29
2017-02-27T11:39:55.639Z,22.43
2017-02-27T11:41:05.218Z,22.29
2017-02-27T11:42:14.409Z,22.41
2017-02-27T11:43:24.769Z,22.25
2017-02-27T11:44:33.907Z,22.39
2017-02-27T11:45:43.083Z,22.38
2017-02-27T11:46:53.073Z,22.32
2017-02-27T11:48:02.664Z,22.29
2017-02-27T11:49:12.991Z,22.28
2017-02-27T11:50:22.163Z,22.3
2017-02-27T11:51:32.128Z,22.36
2017-02-27T11:52:42.135Z,22.28
2017-02-27T11:53:52.090Z,22.28
2017-02-27T11:55:02.455Z,22.29
2017-02-27T11:56:12.434Z,22.25
2017-02-27T11:57:22.740Z,22.3
2017-02-27T11:58:32.293Z,22.26
2017-02-27T11:59:41.498Z,22.29
2017-02-27T12:00:51.410Z,22.26
2017-02-27T12:02:00.178Z,22.26
2017-02-27T12:03:09.747Z,22.28
2017-02-27T12:04:19.909Z,22.25
2017-02-27T12:05:29.077Z,22.26
2017-02-27T12:06:38.642Z,22.22
2017-02-27T12:07:47.847Z,22.28
2017-02-27T12:08:57.030Z,22.26
2017-02-27T12:10:07.195Z,22.28
2017-02-27T12:11:17.160Z,22.23
2017-02-27T12:12:27.123Z,22.23
2017-02-27T12:13:37.827Z,22.26
2017-02-27T12:14:48.147Z,22.23
2017-02-27T12:15:58.470Z,22.25
2017-02-27T12:17:08.778Z,22.26
2017-02-27T12:18:17.584Z,22.25
2017-02-27T12:19:27.545Z,22.22
2017-02-27T12:20:37.537Z,22.25
2017-02-27T12:21:46.723Z,22.22
2017-02-27T12:22:56.328Z,22.23
2017-02-27T12:24:05.097Z,22.2
2017-02-27T12:25:14.263Z,22.17
2017-02-27T12:26:23.469Z,22.22
2017-02-27T12:27:32.687Z,22.18
2017-02-27T12:28:43.032Z,22.2
2017-02-27T12:29:52.986Z,22.25
2017-02-27T12:31:02.560Z,22.29
2017-02-27T12:32:12.090Z,22.22
2017-02-27T12:33:21.641Z,22.2
2017-02-27T12:34:31.628Z,22.17
2017-02-27T12:35:41.974Z,22.2
2017-02-27T12:36:51.927Z,22.29
2017-02-27T12:38:01.882Z,22.28
2017-02-27T12:39:11.434Z,22.29
2017-02-27T12:40:20.636Z,22.23
2017-02-27T12:41:30.580Z,22.17
2017-02-27T12:42:41.330Z,22.2
2017-02-27T12:43:51.282Z,22.18
2017-02-27T12:45:01.625Z,22.22
2017-02-27T12:46:12.335Z,22.15
2017-02-27T12:47:22.301Z,22.2
2017-02-27T12:48:32.285Z,22.17
2017-02-27T12:49:42.273Z,22.17
2017-02-27T12:50:52.635Z,22.22
2017-02-27T12:52:02.614Z,22.15
2017-02-27T12:53:12.952Z,22.22
2017-02-27T12:54:22.534Z,22.15
2017-02-27T12:55:31.742Z,22.22
2017-02-27T12:56:41.315Z,22.17
2017-02-27T12:57:50.773Z,22.13
2017-02-27T12:59:01.506Z,22.22
2017-02-27T13:00:11.424Z,22.18
2017-02-27T13:01:20.962Z,22.17
2017-02-27T13:02:31.307Z,22.18
2017-02-27T13:03:40.489Z,22.17
2017-02-27T13:04:50.473Z,22.11
2017-02-27T13:06:00.382Z,22.15
2017-02-27T13:07:09.571Z,22.13
2017-02-27T13:08:19.104Z,22.15
2017-02-27T13:09:28.653Z,22.17
2017-02-27T13:10:37.895Z,22.15
2017-02-27T13:11:47.868Z,22.1
2017-02-27T13:12:57.836Z,22.17
2017-02-27T13:14:07.808Z,22.11
2017-02-27T13:15:17.387Z,22.14
2017-02-27T13:16:26.226Z,22.13
2017-02-27T13:17:36.422Z,22.15
2017-02-27T13:18:46.391Z,22.15
2017-02-27T13:19:55.607Z,22.11
2017-02-27T13:21:05.137Z,22.17
2017-02-27T13:22:15.453Z,22.2
2017-02-27T13:23:25.028Z,22.14
2017-02-27T13:24:34.998Z,22.13
2017-02-27T13:25:44.930Z,22.14
2017-02-27T13:26:54.075Z,22.11
2017-02-27T13:28:04.370Z,22.15
2017-02-27T13:29:14.673Z,22.15
2017-02-27T13:30:24.615Z,22.13
2017-02-27T13:31:34.164Z,22.14
2017-02-27T13:32:44.119Z,22.15
2017-02-27T13:33:53.455Z,22.2
2017-02-27T13:35:02.983Z,22.15
2017-02-27T13:36:12.548Z,22.14
2017-02-27T13:37:22.909Z,22.17
2017-02-27T13:38:33.219Z,22.15
2017-02-27T13:39:43.548Z,22.18
2017-02-27T13:40:53.662Z,22.18
2017-02-27T13:42:03.205Z,22.2
2017-02-27T13:43:13.151Z,22.2
2017-02-27T13:44:22.679Z,22.11
2017-02-27T13:45:31.834Z,22.13
2017-02-27T13:46:41.452Z,22.17
2017-02-27T13:47:51.050Z,22.2
2017-02-27T13:49:00.633Z,22.14
2017-02-27T13:50:10.948Z,22.14
2017-02-27T13:51:20.132Z,22.15
2017-02-27T13:52:29.334Z,22.07
2017-02-27T13:53:38.948Z,22.04
2017-02-27T13:54:48.589Z,22.14
2017-02-27T13:55:57.786Z,22.14
2017-02-27T13:57:07.371Z,22.13
2017-02-27T13:58:17.153Z,22.13
2017-02-27T13:59:26.341Z,22.14
2017-02-27T14:00:35.908Z,22.17
2017-02-27T14:01:45.909Z,22.11
2017-02-27T14:02:55.479Z,22.15
2017-02-27T14:04:05.850Z,22.07
2017-02-27T14:05:15.024Z,22.13
2017-02-27T14:06:23.821Z,22.14
2017-02-27T14:07:33.402Z,22.2
2017-02-27T14:08:42.599Z,22.1
2017-02-27T14:09:52.189Z,22.17
2017-02-27T14:11:00.983Z,22.2
2017-02-27T14:12:10.179Z,22.17
2017-02-27T14:13:19.737Z,22.2
2017-02-27T14:14:29.313Z,22.17
2017-02-27T14:15:38.887Z,22.17
2017-02-27T14:16:48.870Z,22.15
2017-02-27T14:17:58.030Z,22.17
2017-02-27T14:19:07.577Z,22.17
2017-02-27T14:20:17.561Z,22.17
2017-02-27T14:21:26.740Z,22.22
2017-02-27T14:22:36.714Z,22.18
2017-02-27T14:23:47.029Z,22.1
2017-02-27T14:24:56.957Z,22.1
2017-02-27T14:26:06.940Z,22.11
2017-02-27T14:27:16.131Z,22.17
2017-02-27T14:28:25.287Z,22.22
2017-02-27T14:29:35.642Z,22.22
2017-02-27T14:30:45.218Z,22.13
2017-02-27T14:31:54.804Z,22.23
2017-02-27T14:33:04.389Z,22.28
2017-02-27T14:34:13.979Z,22.28
2017-02-27T14:35:23.931Z,22.26
2017-02-27T14:36:32.699Z,22.25
2017-02-27T14:37:42.244Z,22.32
2017-02-27T14:38:51.440Z,22.23
2017-02-27T14:40:01.026Z,22.28
2017-02-27T14:41:10.996Z,22.32
2017-02-27T14:42:20.207Z,22.3
2017-02-27T14:43:29.781Z,22.3
2017-02-27T14:44:39.326Z,22.29
2017-02-27T14:45:48.522Z,22.3
2017-02-27T14:46:57.724Z,22.3
2017-02-27T14:48:08.078Z,22.38
2017-02-27T14:49:17.255Z,22.28
2017-02-27T14:50:27.586Z,22.41
2017-02-27T14:51:36.741Z,22.39
2017-02-27T14:52:46.665Z,22.36
2017-02-27T14:53:56.225Z,22.41
2017-02-27T14:55:05.428Z,22.36
2017-02-27T14:56:15.405Z,22.33
2017-02-27T14:57:25.390Z,22.35
2017-02-27T14:58:35.377Z,22.41
2017-02-27T14:59:45.304Z,22.43
2017-02-27T15:00:54.847Z,22.39
2017-02-27T15:02:05.196Z,22.41
2017-02-27T15:03:15.383Z,22.33
2017-02-27T15:04:24.984Z,22.25
2017-02-27T15:05:34.161Z,22.25
2017-02-27T15:06:43.723Z,22.38
2017-02-27T15:07:53.305Z,22.33
2017-02-27T15:09:02.931Z,22.33
2017-02-27T15:10:12.512Z,22.39
2017-02-27T15:11:22.468Z,22.25
2017-02-27T15:12:31.255Z,22.3
2017-02-27T15:13:40.827Z,22.29
2017-02-27T15:14:50.793Z,22.28
2017-02-27T15:16:00.982Z,22.25
2017-02-27T15:17:10.561Z,22.26
2017-02-27T15:18:20.168Z,22.28